Time;durP1;ratioP1;P1;durP2;ratioP2;P2;SDS_P1;SDS_P2;PMS_P1;PMS_P2;Temp;Humidity;BMP_temperature;BMP_pressure;BME280_temperature;BME280_humidity;BME280_pressure;Samples;Min_cycle;Max_cycle;Signal;HPM_P1;HPM_P2
2023/03/11 00:02:14;;;;;;;10.52;1.92;;;0.20;99.90;;;;;;5057060;28;20516;-70
2023/03/11 00:04:39;;;;;;;4.60;1.00;;;0.20;99.90;;;;;;5066253;28;20060;-70
2023/03/11 00:07:06;;;;;;;13.60;3.35;;;0.20;99.90;;;;;;5057781;28;20039;-70
2023/03/11 00:09:33;;;;;;;3.03;1.08;;;0.20;99.90;;;;;;5054892;28;20045;-70
2023/03/11 00:11:59;;;;;;;5.40;1.58;;;0.20;99.90;;;;;;5055293;28;20440;-71
2023/03/11 00:14:24;;;;;;;5.43;1.33;;;0.20;99.90;;;;;;5056465;28;20041;-70
2023/03/11 00:16:50;;;;;;;15.68;2.13;;;0.20;99.90;;;;;;5074590;28;20094;-70
2023/03/11 00:19:15;;;;;;;9.90;1.60;;;0.20;99.90;;;;;;5074758;28;20418;-70
2023/03/11 00:21:41;;;;;;;5.85;1.67;;;0.20;99.90;;;;;;5072549;28;20672;-70
2023/03/11 00:24:07;;;;;;;11.73;1.60;;;0.20;99.90;;;;;;5056930;28;20135;-70
2023/03/11 00:26:32;;;;;;;5.35;1.58;;;0.10;99.90;;;;;;5054617;28;20056;-71
2023/03/11 00:28:58;;;;;;;7.80;2.13;;;0.10;99.90;;;;;;5054479;28;20564;-70
2023/03/11 00:31:25;;;;;;;4.78;1.38;;;0.20;99.90;;;;;;5063829;28;20044;-70
2023/03/11 00:33:52;;;;;;;7.93;1.40;;;0.20;99.90;;;;;;5058194;28;20125;-71
2023/03/11 00:36:30;;;;;;;6.75;1.23;;;0.20;99.90;;;;;;5058754;28;20041;-70
2023/03/11 00:38:57;;;;;;;9.07;1.83;;;0.10;99.90;;;;;;5049506;28;20040;-71
2023/03/11 00:41:22;;;;;;;4.90;1.48;;;0.20;99.90;;;;;;5068070;28;20478;-70
2023/03/11 00:43:48;;;;;;;5.90;1.38;;;0.10;99.90;;;;;;5073438;28;20047;-70
2023/03/11 00:46:14;;;;;;;3.97;1.00;;;0.10;99.90;;;;;;5073066;28;20045;-70
2023/03/11 00:48:39;;;;;;;10.93;1.33;;;0.20;99.90;;;;;;5070644;28;20041;-71
2023/03/11 00:51:13;;;;;;;3.20;1.08;;;0.10;99.90;;;;;;5074145;28;20045;-73
2023/03/11 00:53:39;;;;;;;8.45;1.40;;;0.10;99.90;;;;;;5074037;28;20170;-71
2023/03/11 00:56:07;;;;;;;7.78;1.30;;;0.10;99.90;;;;;;5063279;28;20140;-71
2023/03/11 00:58:34;;;;;;;3.00;1.13;;;0.20;99.90;;;;;;5068203;28;20044;-71
2023/03/11 01:01:10;;;;;;;3.45;1.25;;;0.20;99.90;;;;;;5069572;28;20043;-71
2023/03/11 01:03:36;;;;;;;5.28;1.00;;;0.20;99.90;;;;;;5072528;28;20071;-70
2023/03/11 01:06:02;;;;;;;7.97;1.25;;;0.20;99.90;;;;;;5072207;28;20043;-71
2023/03/11 01:08:30;;;;;;;7.38;1.33;;;0.20;99.90;;;;;;5070988;28;20032;-71
2023/03/11 01:10:56;;;;;;;8.40;1.33;;;0.20;99.90;;;;;;5055621;28;20153;-71
2023/03/11 01:13:21;;;;;;;5.53;1.10;;;0.20;99.90;;;;;;5067784;28;20037;-70
2023/03/11 01:15:47;;;;;;;15.88;2.95;;;0.20;99.90;;;;;;5053676;28;20178;-70
2023/03/11 01:18:14;;;;;;;6.07;1.33;;;0.20;99.90;;;;;;5067921;28;20649;-71
2023/03/11 01:20:40;;;;;;;6.25;1.05;;;0.20;99.90;;;;;;5073689;28;20106;-71
2023/03/11 01:23:06;;;;;;;4.78;0.85;;;0.20;99.90;;;;;;5067163;28;20040;-71
2023/03/11 01:25:32;;;;;;;10.05;1.60;;;0.20;99.90;;;;;;5069879;28;20048;-71
2023/03/11 01:27:58;;;;;;;5.78;1.20;;;0.20;99.90;;;;;;5073065;28;20043;-70
2023/03/11 01:30:25;;;;;;;3.42;1.00;;;0.20;99.90;;;;;;5067216;28;20041;-71
2023/03/11 01:32:52;;;;;;;4.18;1.30;;;0.20;99.90;;;;;;5064947;28;20039;-71
2023/03/11 01:35:20;;;;;;;6.68;1.40;;;0.40;99.90;;;;;;5071028;28;20091;-71
2023/03/11 01:37:46;;;;;;;6.43;1.48;;;0.20;99.90;;;;;;5067862;28;20409;-71
2023/03/11 01:40:20;;;;;;;6.22;1.30;;;0.50;99.90;;;;;;5070896;28;20041;-71
2023/03/11 01:42:45;;;;;;;7.60;1.45;;;0.20;99.90;;;;;;5069541;28;20078;-71
2023/03/11 01:45:39;;;;;;;5.85;1.42;;;0.20;99.90;;;;;;5073019;28;20532;-71
2023/03/11 01:48:06;;;;;;;7.68;1.52;;;0.20;99.90;;;;;;5078884;28;20448;-71
2023/03/11 01:50:35;;;;;;;6.20;1.60;;;0.10;99.90;;;;;;5070779;28;20048;-71
2023/03/11 01:53:03;;;;;;;2.90;0.98;;;0.10;99.90;;;;;;5070227;28;20497;-71
2023/03/11 01:55:30;;;;;;;7.05;1.33;;;1.20;99.90;;;;;;5068773;28;20044;-71
2023/03/11 01:57:57;;;;;;;4.85;1.10;;;0.10;99.90;;;;;;5068533;28;20037;-71
2023/03/11 02:00:22;;;;;;;2.33;0.88;;;0.00;99.90;;;;;;5070230;28;20040;-71
2023/03/11 02:02:51;;;;;;;8.93;1.35;;;0.00;99.90;;;;;;5071920;28;20043;-71
2023/03/11 02:05:20;;;;;;;4.57;1.00;;;0.10;99.90;;;;;;5068857;28;20535;-73
2023/03/11 02:07:46;;;;;;;;;;;0.00;99.90;;;;;;5063021;28;20048;-71
2023/03/11 02:10:13;;;;;;;10.45;1.25;;;0.00;99.90;;;;;;5061542;28;19921;-72
2023/03/11 02:12:39;;;;;;;2.17;0.90;;;0.00;99.90;;;;;;5067210;28;20077;-71
2023/03/11 02:15:06;;;;;;;1.17;0.70;;;0.00;99.90;;;;;;5065313;28;20040;-71
2023/03/11 02:17:32;;;;;;;1.52;0.70;;;0.00;99.90;;;;;;5054499;28;20140;-71
2023/03/11 02:20:00;;;;;;;2.40;0.88;;;-0.10;99.90;;;;;;5071697;28;20044;-71
2023/03/11 02:22:28;;;;;;;;;;;-0.10;99.90;;;;;;5065750;28;20482;-71
2023/03/11 02:25:00;;;;;;;5.90;1.20;;;-0.10;99.90;;;;;;5061357;28;19927;-71
2023/03/11 02:27:27;;;;;;;4.28;1.10;;;-0.10;99.90;;;;;;5064131;28;20049;-71
2023/03/11 02:29:55;;;;;;;4.00;1.08;;;-0.10;99.90;;;;;;5070317;28;20045;-71
2023/03/11 02:32:21;;;;;;;4.32;0.80;;;-0.10;99.90;;;;;;5066383;28;20469;-71
2023/03/11 02:34:47;;;;;;;3.85;0.80;;;-0.10;99.90;;;;;;5072620;28;20040;-71
2023/03/11 02:37:15;;;;;;;4.50;0.82;;;-0.10;99.90;;;;;;5067072;28;20422;-71
2023/03/11 02:39:45;;;;;;;5.00;1.17;;;-0.10;99.90;;;;;;5057967;28;20083;-72
2023/03/11 02:42:18;;;;;;;1.77;0.90;;;-0.20;99.90;;;;;;5073064;28;20563;-71
2023/03/11 02:44:48;;;;;;;7.00;1.13;;;-0.20;99.90;;;;;;5068748;28;20044;-71
2023/03/11 02:47:14;;;;;;;5.97;1.30;;;-0.20;99.90;;;;;;5069955;28;20100;-71
2023/03/11 02:49:40;;;;;;;7.30;1.38;;;-0.20;99.90;;;;;;5068061;28;20064;-71
2023/03/11 02:52:07;;;;;;;2.03;1.00;;;-0.20;99.90;;;;;;5068155;28;20173;-71
2023/03/11 02:54:33;;;;;;;4.75;1.02;;;-0.30;99.90;;;;;;5069979;28;20041;-71
2023/03/11 02:56:58;;;;;;;5.70;1.42;;;-0.30;99.90;;;;;;5066781;28;20037;-71
2023/03/11 02:59:24;;;;;;;5.07;1.15;;;-0.40;99.90;;;;;;5069662;28;20045;-71
2023/03/11 03:01:50;;;;;;;13.90;1.63;;;-0.40;99.90;;;;;;5067347;28;20041;-71
2023/03/11 03:04:15;;;;;;;5.03;0.90;;;-0.40;99.90;;;;;;5065458;28;20394;-71
2023/03/11 03:06:41;;;;;;;4.57;0.80;;;-0.50;99.90;;;;;;5059563;28;20049;-71
2023/03/11 03:09:07;;;;;;;3.97;1.20;;;-0.40;99.90;;;;;;5068792;28;20048;-71
2023/03/11 03:11:32;;;;;;;2.65;1.17;;;-0.50;99.90;;;;;;5072627;28;20044;-71
2023/03/11 03:13:58;;;;;;;5.93;1.58;;;-0.50;99.90;;;;;;5071220;28;20036;-71
2023/03/11 03:16:24;;;;;;;4.32;1.27;;;-0.30;99.90;;;;;;5069824;28;20182;-71
2023/03/11 03:18:51;;;;;;;4.30;1.10;;;-0.50;99.90;;;;;;5070118;28;20045;-71
2023/03/11 03:21:16;;;;;;;6.47;1.20;;;-0.60;99.90;;;;;;5073678;28;20048;-71
2023/03/11 03:23:42;;;;;;;5.22;1.08;;;-0.60;99.90;;;;;;5069434;28;20064;-71
2023/03/11 03:26:12;;;;;;;5.85;0.90;;;-0.70;99.90;;;;;;5068896;28;20355;-71
2023/03/11 03:28:38;;;;;;;11.15;1.60;;;-0.70;99.90;;;;;;5072219;28;20076;-72
2023/03/11 03:31:06;;;;;;;4.55;1.13;;;-0.80;99.90;;;;;;5070187;28;20068;-72
2023/03/11 03:33:32;;;;;;;6.68;1.20;;;-0.80;99.90;;;;;;5072811;28;20040;-72
2023/03/11 03:35:58;;;;;;;4.57;1.30;;;-0.70;99.90;;;;;;5063876;28;20511;-72
2023/03/11 03:38:23;;;;;;;3.80;1.13;;;-0.90;99.90;;;;;;5069584;28;20040;-71
2023/03/11 03:40:49;;;;;;;7.95;1.73;;;-0.90;99.90;;;;;;5061747;28;20036;-71
2023/03/11 03:43:15;;;;;;;8.23;1.15;;;-1.00;99.90;;;;;;5072727;28;20386;-70
2023/03/11 03:45:40;;;;;;;4.95;1.10;;;-1.10;99.90;;;;;;5063516;28;20584;-71
2023/03/11 03:48:06;;;;;;;7.07;1.40;;;-1.10;99.90;;;;;;5062697;28;20037;-71
2023/03/11 03:50:32;;;;;;;3.28;1.42;;;-1.00;99.90;;;;;;5071690;28;20103;-71
2023/03/11 03:52:57;;;;;;;4.18;1.23;;;-1.00;99.90;;;;;;5068974;28;20049;-71
2023/03/11 03:55:23;;;;;;;7.68;1.52;;;-0.90;99.90;;;;;;5066364;28;20083;-71
2023/03/11 03:57:49;;;;;;;5.32;1.30;;;-0.90;99.90;;;;;;5075043;28;20476;-71
2023/03/11 04:00:15;;;;;;;7.13;1.40;;;-0.90;99.90;;;;;;5072991;28;20450;-71
2023/03/11 04:02:41;;;;;;;6.75;1.35;;;-0.90;99.90;;;;;;5066991;28;20097;-71
2023/03/11 04:05:07;;;;;;;3.65;1.00;;;-0.90;99.90;;;;;;5071490;28;20048;-71
2023/03/11 04:07:34;;;;;;;6.53;1.50;;;-0.90;99.90;;;;;;5064186;28;20052;-71
2023/03/11 04:10:00;;;;;;;6.78;1.27;;;-0.90;99.90;;;;;;5065399;28;20149;-71
2023/03/11 04:12:26;;;;;;;7.18;1.70;;;-1.00;99.90;;;;;;5052369;28;20128;-71
2023/03/11 04:14:52;;;;;;;5.70;1.00;;;-1.10;99.90;;;;;;5073378;28;20551;-70
2023/03/11 04:17:17;;;;;;;4.22;1.17;;;-1.10;99.90;;;;;;5067929;28;20040;-71
2023/03/11 04:19:43;;;;;;;6.88;1.63;;;-1.20;99.90;;;;;;5064866;28;20040;-70
2023/03/11 04:22:09;;;;;;;5.57;1.13;;;-1.20;99.90;;;;;;5071785;28;20067;-70
2023/03/11 04:24:34;;;;;;;4.63;1.40;;;-1.20;99.90;;;;;;5069485;28;20040;-71
2023/03/11 04:27:00;;;;;;;10.00;1.63;;;-1.30;99.90;;;;;;5056170;28;20052;-71
2023/03/11 04:29:26;;;;;;;8.02;1.55;;;-1.30;99.90;;;;;;5068969;28;20029;-71
2023/03/11 04:31:51;;;;;;;6.07;1.30;;;-1.30;99.90;;;;;;5068054;28;20431;-71
2023/03/11 04:34:17;;;;;;;6.65;1.23;;;-1.30;99.90;;;;;;5069353;28;20068;-71
2023/03/11 04:36:42;;;;;;;6.15;1.40;;;-1.30;99.90;;;;;;5068659;28;20045;-71
2023/03/11 04:39:08;;;;;;;12.40;2.05;;;-1.30;99.90;;;;;;5068514;28;20203;-71
2023/03/11 04:41:34;;;;;;;5.13;1.27;;;-1.30;99.90;;;;;;5061731;28;20040;-71
2023/03/11 04:43:59;;;;;;;6.28;1.85;;;-1.30;99.90;;;;;;5067899;28;20036;-70
2023/03/11 04:46:25;;;;;;;2.75;1.20;;;-1.40;99.90;;;;;;5064956;28;20051;-71
2023/03/11 04:48:51;;;;;;;5.75;1.58;;;-1.40;99.90;;;;;;5065040;28;20037;-71
2023/03/11 04:51:17;;;;;;;7.20;1.40;;;-1.50;99.90;;;;;;5067612;28;20176;-70
2023/03/11 04:53:42;;;;;;;5.18;1.35;;;-1.50;99.90;;;;;;5069537;28;20127;-71
2023/03/11 04:56:08;;;;;;;4.30;1.23;;;-1.60;99.90;;;;;;5071554;28;20043;-71
2023/03/11 04:58:33;;;;;;;8.20;1.52;;;-1.70;99.90;;;;;;5064849;28;20040;-71
2023/03/11 05:00:59;;;;;;;3.17;1.15;;;-1.70;99.90;;;;;;5070067;28;20510;-71
2023/03/11 05:03:25;;;;;;;8.98;1.85;;;-1.70;99.90;;;;;;5070764;28;20179;-71
2023/03/11 05:05:53;;;;;;;8.57;1.48;;;-1.70;99.90;;;;;;5062324;28;20044;-71
2023/03/11 05:08:19;;;;;;;;;;;-1.70;99.90;;;;;;5070697;28;20044;-71
2023/03/11 05:10:44;;;;;;;8.10;1.88;;;-1.70;99.90;;;;;;5068781;28;20127;-71
2023/03/11 05:13:10;;;;;;;5.05;1.20;;;-1.60;99.90;;;;;;5072942;28;20412;-71
2023/03/11 05:15:36;;;;;;;6.53;1.58;;;-1.70;99.90;;;;;;5065212;28;20094;-70
2023/03/11 05:18:03;;;;;;;10.15;1.30;;;-1.80;99.90;;;;;;5067245;28;20048;-71
2023/03/11 05:20:30;;;;;;;7.50;1.40;;;-1.80;99.90;;;;;;5063606;28;20137;-71
2023/03/11 05:22:55;;;;;;;10.45;1.45;;;-1.80;99.90;;;;;;5073213;28;20097;-71
2023/03/11 05:25:21;;;;;;;8.82;1.33;;;-1.80;99.90;;;;;;5066813;28;20417;-70
2023/03/11 05:27:46;;;;;;;8.43;1.40;;;-1.80;99.90;;;;;;5069091;28;20053;-71
2023/03/11 05:30:14;;;;;;;4.30;1.48;;;-1.80;99.90;;;;;;5057956;28;20055;-71
2023/03/11 05:32:39;;;;;;;12.30;1.77;;;-1.90;99.90;;;;;;5068910;28;20410;-71
2023/03/11 05:35:05;;;;;;;4.85;1.40;;;-1.90;99.90;;;;;;5071057;28;20045;-71
2023/03/11 05:37:31;;;;;;;12.48;1.90;;;-1.90;99.90;;;;;;5068857;28;20037;-71
2023/03/11 05:39:57;;;;;;;10.35;2.72;;;-1.90;99.90;;;;;;5067542;28;20037;-71
2023/03/11 05:42:22;;;;;;;6.50;2.17;;;-1.90;99.90;;;;;;5070085;28;20363;-71
2023/03/11 05:44:48;;;;;;;17.02;2.45;;;-2.00;99.90;;;;;;5067954;28;20493;-71
2023/03/11 05:47:15;;;;;;;7.70;1.98;;;-2.00;99.90;;;;;;5052807;28;20117;-71
2023/03/11 05:49:41;;;;;;;6.53;1.90;;;-2.00;99.90;;;;;;5070867;28;20048;-71
2023/03/11 05:52:07;;;;;;;10.52;1.70;;;-2.00;99.90;;;;;;5068247;28;20664;-71
2023/03/11 05:54:32;;;;;;;7.75;2.13;;;-2.00;99.90;;;;;;5070114;28;20500;-71
2023/03/11 05:56:58;;;;;;;12.13;2.00;;;-2.00;99.90;;;;;;5067144;28;20389;-71
2023/03/11 05:59:24;;;;;;;4.80;2.00;;;-2.00;99.90;;;;;;5061730;28;20041;-71
2023/03/11 06:01:49;;;;;;;10.38;1.90;;;-2.00;99.90;;;;;;5067602;28;20551;-71
2023/03/11 06:04:15;;;;;;;4.85;1.83;;;-2.10;99.90;;;;;;5064814;28;20436;-71
2023/03/11 06:06:40;;;;;;;8.63;2.00;;;-2.00;99.90;;;;;;5058448;28;20072;-71
2023/03/11 06:09:11;;;;;;;10.60;1.98;;;-2.10;99.90;;;;;;5069727;28;20036;-71
2023/03/11 06:11:36;;;;;;;7.47;1.90;;;-2.10;99.90;;;;;;5064543;28;20604;-71
2023/03/11 06:14:02;;;;;;;4.57;1.95;;;-2.10;99.90;;;;;;5061660;28;20048;-71
2023/03/11 06:16:27;;;;;;;5.65;1.77;;;-2.10;99.90;;;;;;5065394;28;20087;-71
2023/03/11 06:18:53;;;;;;;6.50;1.77;;;-2.10;99.90;;;;;;5065640;28;20040;-71
2023/03/11 06:21:21;;;;;;;12.18;1.88;;;-2.10;99.90;;;;;;5070047;28;20032;-71
2023/03/11 06:23:47;;;;;;;5.40;1.90;;;-2.10;99.90;;;;;;5070314;28;20512;-71
2023/03/11 06:26:15;;;;;;;7.07;1.85;;;-2.00;99.90;;;;;;5056293;28;20075;-71
2023/03/11 06:28:42;;;;;;;9.80;2.00;;;-2.00;99.90;;;;;;5060252;28;20040;-71
2023/03/11 06:31:10;;;;;;;10.27;2.15;;;-2.00;99.90;;;;;;5072337;28;20162;-71
2023/03/11 06:33:36;;;;;;;12.82;2.17;;;-2.00;99.90;;;;;;5067381;28;20048;-71
2023/03/11 06:36:04;;;;;;;19.27;3.35;;;-2.00;99.90;;;;;;5069826;28;20040;-71
2023/03/11 06:38:31;;;;;;;6.20;1.67;;;-2.00;99.90;;;;;;5066704;28;20101;-71
2023/03/11 06:41:02;;;;;;;4.63;1.90;;;-1.90;99.90;;;;;;5055652;28;20045;-71
2023/03/11 06:43:28;;;;;;;9.25;2.00;;;-1.90;99.90;;;;;;5072174;28;20044;-71
2023/03/11 06:45:54;;;;;;;11.27;1.95;;;-1.90;99.90;;;;;;5067374;28;20041;-71
2023/03/11 06:48:20;;;;;;;7.20;2.25;;;-1.80;99.90;;;;;;5072138;28;20393;-71
2023/03/11 06:50:56;;;;;;;8.45;2.05;;;-1.80;99.90;;;;;;5070441;28;20118;-71
2023/03/11 06:53:23;;;;;;;4.07;1.92;;;-1.80;99.90;;;;;;5051861;28;20041;-71
2023/03/11 06:56:01;;;;;;;7.50;2.55;;;-1.70;99.90;;;;;;5068317;28;20405;-71
2023/03/11 06:58:27;;;;;;;8.07;1.98;;;-1.70;99.90;;;;;;5062769;28;20067;-71
2023/03/11 07:00:53;;;;;;;7.13;2.13;;;-1.60;99.90;;;;;;5068717;28;20048;-71
2023/03/11 07:03:19;;;;;;;12.10;2.28;;;-1.50;99.90;;;;;;5071867;28;20037;-72
2023/03/11 07:05:44;;;;;;;7.90;2.30;;;-1.40;99.90;;;;;;5054491;28;20047;-72
2023/03/11 07:08:10;;;;;;;8.30;2.22;;;-1.40;99.90;;;;;;5071088;28;20048;-71
2023/03/11 07:10:40;;;;;;;8.43;2.58;;;-1.30;99.90;;;;;;5072842;28;20086;-72
2023/03/11 07:13:08;;;;;;;13.32;2.60;;;-1.20;99.90;;;;;;5041257;28;20455;-71
2023/03/11 07:15:34;;;;;;;4.53;1.85;;;-1.20;99.90;;;;;;5062477;28;20090;-71
2023/03/11 07:18:00;;;;;;;7.22;2.05;;;-1.10;99.90;;;;;;5074181;28;20037;-71
2023/03/11 07:20:26;;;;;;;10.18;2.45;;;-1.00;99.90;;;;;;5072398;28;20037;-72
2023/03/11 07:22:51;;;;;;;11.98;2.20;;;-0.90;99.90;;;;;;5064484;28;20045;-72
2023/03/11 07:25:17;;;;;;;10.90;2.53;;;-0.80;99.90;;;;;;5057646;28;20048;-72
2023/03/11 07:27:43;;;;;;;4.53;1.98;;;-0.70;99.90;;;;;;5064244;28;20482;-72
2023/03/11 07:30:10;;;;;;;5.40;2.10;;;-0.60;99.90;;;;;;5059168;28;20040;-71
2023/03/11 07:32:36;;;;;;;5.90;1.90;;;-0.50;99.90;;;;;;5074472;28;20044;-71
2023/03/11 07:35:02;;;;;;;14.80;2.25;;;-0.40;99.90;;;;;;5062154;28;20046;-72
2023/03/11 07:37:28;;;;;;;6.22;2.28;;;-0.40;99.90;;;;;;5071943;28;20040;-71
2023/03/11 07:39:53;;;;;;;8.10;1.77;;;-0.30;99.90;;;;;;5071334;28;20146;-72
2023/03/11 07:42:19;;;;;;;4.68;1.90;;;-0.20;99.90;;;;;;5064032;28;20115;-72
2023/03/11 07:44:45;;;;;;;8.43;1.77;;;-0.10;99.90;;;;;;5072499;28;20123;-72
2023/03/11 07:47:10;;;;;;;5.95;1.88;;;0.00;99.90;;;;;;5065923;28;20148;-72
2023/03/11 07:49:36;;;;;;;7.97;2.30;;;0.10;99.90;;;;;;5068653;28;20402;-72
2023/03/11 07:52:02;;;;;;;8.80;1.83;;;0.20;99.90;;;;;;5070307;28;20041;-72
2023/03/11 07:54:27;;;;;;;8.40;2.28;;;0.40;99.90;;;;;;5072369;28;20032;-72
2023/03/11 07:56:53;;;;;;;9.50;2.35;;;0.50;99.90;;;;;;5069641;28;20041;-72
2023/03/11 07:59:19;;;;;;;11.38;2.33;;;0.60;99.90;;;;;;5062145;28;20474;-72
2023/03/11 08:01:46;;;;;;;15.10;2.55;;;0.70;99.90;;;;;;5063531;28;20055;-72
2023/03/11 08:04:13;;;;;;;9.98;2.33;;;0.90;99.90;;;;;;5069307;28;20113;-71
2023/03/11 08:06:40;;;;;;;5.60;2.50;;;1.00;99.90;;;;;;5066859;28;20045;-71
2023/03/11 08:09:08;;;;;;;6.38;2.25;;;1.00;99.90;;;;;;5057192;28;20048;-71
2023/03/11 08:11:34;;;;;;;9.68;2.20;;;1.10;99.90;;;;;;5067086;28;20084;-71
2023/03/11 08:14:01;;;;;;;7.40;2.00;;;1.20;99.90;;;;;;5075466;28;20045;-72
2023/03/11 08:16:27;;;;;;;9.60;2.60;;;1.30;99.90;;;;;;5062799;28;20041;-73
2023/03/11 08:18:53;;;;;;;11.30;2.22;;;1.40;99.90;;;;;;5067035;28;20044;-72
2023/03/11 08:21:21;;;;;;;9.98;2.60;;;1.70;99.90;;;;;;5075466;28;20041;-73
2023/03/11 08:23:48;;;;;;;4.40;2.10;;;1.70;99.90;;;;;;5073518;28;20138;-72
2023/03/11 08:26:16;;;;;;;5.30;1.90;;;2.00;99.90;;;;;;5062091;28;20044;-72
2023/03/11 08:28:42;;;;;;;9.25;2.35;;;2.10;99.90;;;;;;5070356;28;20051;-73
2023/03/11 08:31:20;;;;;;;6.03;2.20;;;2.30;99.90;;;;;;5078133;28;20068;-73
2023/03/11 08:33:50;;;;;;;14.68;3.20;;;2.20;99.90;;;;;;5073922;28;20045;-72
2023/03/11 08:36:16;;;;;;;5.85;1.70;;;2.20;99.90;;;;;;5074566;28;20068;-72
2023/03/11 08:38:42;;;;;;;4.97;1.90;;;2.30;99.90;;;;;;5073486;28;20040;-71
2023/03/11 08:41:08;;;;;;;7.28;2.08;;;2.40;99.90;;;;;;5069217;28;20060;-72
2023/03/11 08:43:34;;;;;;;4.25;2.30;;;2.40;99.90;;;;;;5074403;28;20041;-73
2023/03/11 08:46:02;;;;;;;7.60;1.80;;;2.50;99.90;;;;;;5067376;28;20123;-73
2023/03/11 08:48:27;;;;;;;8.98;2.35;;;2.50;99.90;;;;;;5068732;28;20576;-72
2023/03/11 08:50:53;;;;;;;9.20;1.88;;;2.60;99.90;;;;;;5065425;28;20140;-72
2023/03/11 08:53:19;;;;;;;14.60;2.20;;;2.70;99.90;;;;;;5073075;28;20048;-73
2023/03/11 08:55:45;;;;;;;6.47;2.08;;;2.70;99.90;;;;;;5070275;28;21718;-73
2023/03/11 08:58:11;;;;;;;13.98;2.55;;;2.80;99.90;;;;;;5070411;28;20040;-72
2023/03/11 09:00:37;;;;;;;6.13;2.13;;;3.00;99.90;;;;;;5063287;28;20378;-72
2023/03/11 09:03:03;;;;;;;8.90;2.13;;;3.10;99.90;;;;;;5069476;28;20101;-72
2023/03/11 09:05:29;;;;;;;8.32;2.10;;;3.30;99.90;;;;;;5062901;28;20059;-72
2023/03/11 09:07:54;;;;;;;4.47;2.00;;;3.90;99.90;;;;;;5059656;28;20179;-73
2023/03/11 09:10:20;;;;;;;8.95;2.15;;;3.50;99.90;;;;;;5062844;28;20683;-72
2023/03/11 09:12:46;;;;;;;4.75;2.20;;;3.70;99.90;;;;;;5072258;28;20090;-72
2023/03/11 09:15:11;;;;;;;14.13;2.30;;;3.80;99.90;;;;;;5068375;28;20039;-71
2023/03/11 09:17:37;;;;;;;12.18;2.58;;;3.90;99.90;;;;;;5065776;28;20447;-72
2023/03/11 09:20:04;;;;;;;6.20;1.95;;;4.00;99.90;;;;;;5068460;28;20047;-72
2023/03/11 09:22:29;;;;;;;19.63;2.35;;;4.20;99.90;;;;;;5070763;28;20032;-72
2023/03/11 09:24:56;;;;;;;13.68;2.40;;;4.30;99.90;;;;;;5064881;28;20043;-71
2023/03/11 09:27:21;;;;;;;7.25;2.08;;;4.50;99.90;;;;;;5065400;28;20116;-71
2023/03/11 09:29:47;;;;;;;12.63;2.60;;;4.50;99.90;;;;;;5064282;28;20112;-72
2023/03/11 09:32:13;;;;;;;4.72;1.77;;;4.60;99.90;;;;;;5068090;28;20041;-72
2023/03/11 09:34:39;;;;;;;15.05;2.05;;;4.70;99.90;;;;;;5068617;28;20120;-71
2023/03/11 09:37:06;;;;;;;4.05;1.60;;;4.80;99.90;;;;;;5068880;28;20056;-74
2023/03/11 09:39:31;;;;;;;8.32;1.88;;;4.90;99.90;;;;;;5070380;28;20041;-72
2023/03/11 09:42:02;;;;;;;7.47;1.83;;;5.00;99.90;;;;;;5063681;28;20041;-71
2023/03/11 09:44:41;;;;;;;13.43;2.83;;;5.10;99.90;;;;;;5072409;28;20048;-71
2023/03/11 09:47:13;;;;;;;6.85;1.80;;;5.20;99.90;;;;;;5061657;28;20044;-71
2023/03/11 09:49:39;;;;;;;8.35;2.20;;;5.40;99.90;;;;;;5053996;28;20045;-71
2023/03/11 09:52:12;;;;;;;5.55;2.03;;;5.50;99.90;;;;;;5068913;28;20105;-71
2023/03/11 09:54:44;;;;;;;8.05;2.03;;;5.80;99.90;;;;;;5064508;28;20047;-71
2023/03/11 09:57:16;;;;;;;8.55;1.70;;;5.80;99.90;;;;;;5063668;28;21610;-70
2023/03/11 09:59:44;;;;;;;5.43;1.50;;;6.10;99.90;;;;;;5072419;28;20128;-70
2023/03/11 10:02:21;;;;;;;5.05;1.60;;;6.20;99.90;;;;;;5072892;28;20048;-72
2023/03/11 10:05:13;;;;;;;6.45;1.48;;;6.30;99.90;;;;;;5068992;28;20089;-72
2023/03/11 10:07:42;;;;;;;6.25;1.75;;;6.40;99.90;;;;;;5068609;28;20518;-70
2023/03/11 10:10:14;;;;;;;10.30;1.60;;;6.50;99.90;;;;;;5065941;28;20131;-71
2023/03/11 10:12:59;;;;;;;6.03;1.33;;;6.50;99.90;;;;;;5065609;28;20509;-71
2023/03/11 10:15:54;;;;;;;5.10;1.67;;;6.70;99.90;;;;;;5068083;28;20441;-71
2023/03/11 10:18:41;;;;;;;7.70;1.77;;;6.60;99.90;;;;;;5072994;28;20044;-72
2023/03/11 10:21:26;;;;;;;4.20;1.85;;;6.90;99.90;;;;;;5073235;28;20087;-71
2023/03/11 10:24:09;;;;;;;7.80;1.88;;;7.30;99.90;;;;;;5058535;28;20048;-70
2023/03/11 10:26:54;;;;;;;9.15;2.15;;;7.70;99.90;;;;;;5072922;28;20051;-72
2023/03/11 10:29:37;;;;;;;7.32;1.67;;;8.00;99.90;;;;;;5066487;28;20459;-72
2023/03/11 10:32:16;;;;;;;12.05;1.90;;;8.40;99.90;;;;;;5064727;28;20062;-71
2023/03/11 10:35:11;;;;;;;12.02;2.00;;;8.50;99.90;;;;;;5059951;28;20044;-71
2023/03/11 10:37:45;;;;;;;5.72;1.70;;;8.70;99.90;;;;;;5058311;28;20516;-71
2023/03/11 10:40:25;;;;;;;6.25;1.73;;;9.00;99.90;;;;;;5063899;28;20044;-71
2023/03/11 10:42:53;;;;;;;6.80;1.73;;;9.10;99.90;;;;;;5063796;28;20493;-71
2023/03/11 10:45:22;;;;;;;5.65;1.73;;;9.20;99.90;;;;;;5063314;28;20041;-71
2023/03/11 10:47:48;;;;;;;7.72;1.88;;;9.40;99.90;;;;;;5056894;28;20037;-71
2023/03/11 10:50:16;;;;;;;9.63;1.55;;;9.40;99.90;;;;;;5060775;28;20060;-70
2023/03/11 10:53:04;;;;;;;8.18;1.70;;;9.40;99.90;;;;;;5063286;28;20056;-70
2023/03/11 10:55:29;;;;;;;7.07;1.45;;;9.50;99.90;;;;;;5068428;28;20037;-70
2023/03/11 10:58:37;;;;;;;6.53;1.80;;;9.60;99.90;;;;;;5066639;28;20887;-70
2023/03/11 11:01:13;;;;;;;8.05;1.85;;;9.40;99.90;;;;;;5064322;28;20494;-70
2023/03/11 11:03:48;;;;;;;8.77;1.55;;;9.40;99.90;;;;;;5064064;28;20049;-69
2023/03/11 11:06:34;;;;;;;5.63;1.50;;;9.40;99.90;;;;;;5060611;28;20555;-70
2023/03/11 11:09:18;;;;;;;9.40;1.60;;;9.40;99.90;;;;;;5064597;28;20055;-70
2023/03/11 11:12:13;;;;;;;6.28;1.73;;;9.40;99.90;;;;;;5055223;28;20049;-69
2023/03/11 11:14:46;;;;;;;6.18;1.83;;;9.40;99.90;;;;;;5065110;28;20044;-70
2023/03/11 11:17:39;;;;;;;8.85;2.03;;;9.60;99.90;;;;;;5066940;28;20576;-70
2023/03/11 11:20:16;;;;;;;9.18;1.83;;;10.10;99.90;;;;;;5077237;28;20064;-70
2023/03/11 11:22:50;;;;;;;5.30;1.48;;;10.40;99.90;;;;;;5062333;28;20083;-68
2023/03/11 11:25:27;;;;;;;6.85;1.90;;;10.50;99.90;;;;;;5066913;28;20437;-70
2023/03/11 11:27:56;;;;;;;11.07;2.55;;;10.70;99.90;;;;;;5059021;28;20041;-70
2023/03/11 11:30:23;;;;;;;5.53;2.28;;;10.80;99.90;;;;;;5067561;28;21345;-70
2023/03/11 11:32:52;;;;;;;7.60;2.25;;;10.80;99.90;;;;;;5068817;28;20051;-70
2023/03/11 11:35:19;;;;;;;6.10;2.60;;;10.90;99.90;;;;;;5065524;28;20095;-69
2023/03/11 11:37:54;;;;;;;5.38;1.70;;;10.90;99.90;;;;;;5066088;28;20037;-69
2023/03/11 11:40:31;;;;;;;4.70;2.00;;;11.10;99.90;;;;;;5076739;28;20111;-70
2023/03/11 11:43:04;;;;;;;7.32;1.95;;;11.40;99.90;;;;;;5071981;28;20045;-70
2023/03/11 11:45:47;;;;;;;6.63;1.70;;;11.60;99.90;;;;;;5056522;28;20049;-70
2023/03/11 11:48:50;;;;;;;10.73;2.13;;;11.70;99.90;;;;;;5072907;28;20461;-70
2023/03/11 11:51:20;;;;;;;7.95;1.92;;;11.90;99.90;;;;;;5069512;28;20406;-70
2023/03/11 11:54:16;;;;;;;7.15;2.05;;;12.20;99.90;;;;;;5070530;28;20032;-70
2023/03/11 11:56:42;;;;;;;3.63;1.58;;;12.10;99.90;;;;;;5063770;28;20084;-69
2023/03/11 11:59:20;;;;;;;5.70;1.77;;;12.20;99.90;;;;;;5077530;28;20450;-69
2023/03/11 12:01:46;;;;;;;6.13;1.70;;;12.30;99.90;;;;;;5070067;28;20052;-70
2023/03/11 12:04:23;;;;;;;7.88;1.95;;;12.40;99.90;;;;;;5060237;28;20059;-70
2023/03/11 12:06:58;;;;;;;10.57;2.97;;;12.70;99.90;;;;;;5071403;28;20051;-70
2023/03/11 12:09:52;;;;;;;9.70;1.83;;;12.50;99.80;;;;;;5055491;28;20127;-71
2023/03/11 12:12:36;;;;;;;5.32;1.65;;;12.80;96.30;;;;;;5057881;28;20615;-70
2023/03/11 12:15:23;;;;;;;6.88;1.60;;;13.10;98.60;;;;;;5064044;28;20179;-71
2023/03/11 12:17:53;;;;;;;4.05;1.50;;;13.00;99.90;;;;;;5069872;28;20040;-70
2023/03/11 12:20:43;;;;;;;7.15;1.55;;;13.00;98.20;;;;;;5063479;28;20029;-71
2023/03/11 12:23:33;;;;;;;8.75;1.30;;;12.60;98.40;;;;;;5069619;28;20037;-70
2023/03/11 12:26:14;;;;;;;7.00;1.50;;;12.00;94.80;;;;;;5068761;28;20098;-70
2023/03/11 12:28:47;;;;;;;5.07;1.55;;;11.70;96.50;;;;;;5065329;28;20084;-70
2023/03/11 12:31:13;;;;;;;6.82;1.60;;;11.80;94.60;;;;;;5067831;28;20133;-71
2023/03/11 12:33:43;;;;;;;3.90;1.50;;;11.40;97.40;;;;;;5068079;28;20090;-70
2023/03/11 12:36:35;;;;;;;7.28;1.35;;;11.50;99.60;;;;;;5065477;28;20141;-70
2023/03/11 12:39:04;;;;;;;6.38;1.63;;;11.50;97.50;;;;;;5051704;28;20068;-71
2023/03/11 12:41:30;;;;;;;5.70;2.00;;;11.40;98.90;;;;;;5056790;28;20041;-71
2023/03/11 12:44:01;;;;;;;8.73;1.33;;;11.40;98.40;;;;;;5066487;28;20124;-71
2023/03/11 12:46:58;;;;;;;4.07;1.00;;;11.30;98.70;;;;;;5064315;28;20053;-70
2023/03/11 12:49:29;;;;;;;4.50;1.40;;;11.00;95.70;;;;;;5073146;28;20131;-71
2023/03/11 12:52:10;;;;;;;4.10;1.30;;;10.60;96.50;;;;;;5068577;28;20043;-69
2023/03/11 12:54:41;;;;;;;7.95;1.55;;;10.00;96.20;;;;;;5051283;28;20406;-70
2023/03/11 12:57:18;;;;;;;3.38;1.45;;;9.70;97.90;;;;;;5063463;28;20041;-69
2023/03/11 12:59:52;;;;;;;6.80;1.30;;;9.40;98.60;;;;;;5060641;28;20094;-70
2023/03/11 13:02:36;;;;;;;6.68;1.63;;;8.70;99.80;;;;;;5072329;28;20040;-69